createdAt,value
2023-05-21T00:00:28.964Z,2.40
2023-05-21T00:03:14.340Z,2.10
2023-05-21T00:06:01.529Z,2.47
2023-05-21T00:08:46.882Z,2.10
2023-05-21T00:11:32.782Z,2.25
2023-05-21T00:14:17.692Z,2.47
2023-05-21T00:17:03.081Z,2.13
2023-05-21T00:19:50.077Z,2.35
2023-05-21T00:22:36.273Z,2.03
2023-05-21T00:25:21.724Z,2.25
2023-05-21T00:28:06.591Z,2.33
2023-05-21T00:30:51.797Z,2.25
2023-05-21T00:33:37.333Z,2.58
2023-05-21T00:36:24.035Z,2.80
2023-05-21T00:39:09.260Z,2.60
2023-05-21T00:41:56.810Z,2.28
2023-05-21T00:44:42.002Z,2.30
2023-05-21T00:47:29.583Z,2.38
2023-05-21T00:50:15.471Z,2.13
2023-05-21T00:53:00.608Z,2.50
2023-05-21T00:55:46.767Z,2.25
2023-05-21T00:58:33.412Z,2.75
2023-05-21T01:01:19.364Z,2.35
2023-05-21T01:04:05.223Z,2.83
2023-05-21T01:06:50.137Z,2.40
2023-05-21T01:09:35.480Z,2.88
2023-05-21T01:12:21.232Z,2.58
2023-05-21T01:15:07.251Z,3.22
2023-05-21T01:17:53.167Z,2.92
2023-05-21T01:20:39.184Z,3.70
2023-05-21T01:23:24.281Z,2.55
2023-05-21T01:26:12.792Z,3.15
2023-05-21T01:28:57.577Z,2.72
2023-05-21T01:31:52.951Z,3.35
2023-05-21T01:34:47.726Z,2.78
2023-05-21T01:37:47.223Z,3.25
2023-05-21T01:40:58.674Z,2.97
2023-05-21T01:43:45.636Z,3.47
2023-05-21T01:46:33.353Z,3.03
2023-05-21T01:49:19.609Z,3.40
2023-05-21T01:52:05.324Z,3.10
2023-05-21T01:54:51.391Z,3.58
2023-05-21T01:57:36.277Z,3.22
2023-05-21T02:00:23.468Z,3.35
2023-05-21T02:03:09.050Z,3.72
2023-05-21T02:05:55.719Z,3.78
2023-05-21T02:08:41.093Z,3.40
2023-05-21T02:11:26.770Z,3.15
2023-05-21T02:14:13.987Z,3.28
2023-05-21T02:17:00.750Z,2.45
2023-05-21T02:19:46.031Z,3.50
2023-05-21T02:22:31.305Z,3.65
2023-05-21T02:25:19.587Z,4.20
2023-05-21T02:28:04.769Z,3.90
2023-05-21T02:30:49.893Z,3.83
2023-05-21T02:33:34.784Z,4.05
2023-05-21T02:36:19.821Z,4.07
2023-05-21T02:39:04.690Z,4.50
2023-05-21T02:41:49.773Z,4.07
2023-05-21T02:44:34.742Z,3.88
2023-05-21T02:47:20.788Z,4.38
2023-05-21T02:50:09.307Z,3.85
2023-05-21T02:52:54.772Z,5.00
2023-05-21T02:55:39.744Z,4.97
2023-05-21T02:58:25.269Z,4.43
2023-05-21T03:01:10.488Z,3.95
2023-05-21T03:03:55.699Z,4.47
2023-05-21T03:06:40.990Z,4.90
2023-05-21T03:09:26.186Z,4.85
2023-05-21T03:12:11.306Z,4.93
2023-05-21T03:14:56.435Z,4.63
2023-05-21T03:17:42.374Z,4.53
2023-05-21T03:20:28.836Z,4.32
2023-05-21T03:23:16.608Z,4.47
2023-05-21T03:26:02.333Z,5.07
2023-05-21T03:28:47.298Z,4.72
2023-05-21T03:31:32.506Z,4.43
2023-05-21T03:34:20.035Z,4.80
2023-05-21T03:37:05.188Z,4.45
2023-05-21T03:39:50.830Z,5.75
2023-05-21T03:42:35.857Z,5.30
2023-05-21T03:45:21.089Z,4.70
2023-05-21T03:48:06.525Z,5.20
2023-05-21T03:50:51.742Z,5.68
2023-05-21T03:53:37.074Z,4.97
2023-05-21T03:56:22.992Z,5.28
2023-05-21T03:59:08.177Z,5.35
2023-05-21T04:01:52.947Z,4.85
2023-05-21T04:04:38.000Z,5.10
2023-05-21T04:07:22.937Z,5.00
2023-05-21T04:10:08.660Z,5.47
2023-05-21T04:12:53.650Z,4.72
2023-05-21T04:15:38.897Z,5.18
2023-05-21T04:18:26.129Z,5.40
2023-05-21T04:21:11.355Z,5.15
2023-05-21T04:23:57.563Z,5.25
2023-05-21T04:26:43.300Z,5.75
2023-05-21T04:29:29.849Z,5.20
2023-05-21T04:32:15.220Z,4.65
2023-05-21T04:35:01.112Z,5.28
2023-05-21T04:37:46.308Z,5.13
2023-05-21T04:40:31.531Z,5.60
2023-05-21T04:43:17.125Z,5.40
2023-05-21T04:46:02.327Z,5.28
2023-05-21T04:48:47.452Z,5.63
2023-05-21T04:51:32.470Z,6.32
2023-05-21T04:54:17.759Z,5.20
2023-05-21T04:57:02.977Z,5.40
2023-05-21T04:59:49.152Z,6.00
2023-05-21T05:02:34.353Z,6.05
2023-05-21T05:05:19.527Z,5.65
2023-05-21T05:08:05.158Z,5.40
2023-05-21T05:10:49.933Z,5.60
2023-05-21T05:13:35.157Z,5.20
2023-05-21T05:16:25.749Z,5.65
2023-05-21T05:19:10.761Z,5.80
2023-05-21T05:21:56.277Z,5.13
2023-05-21T05:24:41.112Z,5.57
2023-05-21T05:27:26.176Z,5.82
2023-05-21T05:30:11.550Z,4.88
2023-05-21T05:32:56.647Z,5.28
2023-05-21T05:35:41.893Z,4.68
2023-05-21T05:38:26.985Z,4.65
2023-05-21T05:41:12.147Z,5.05
2023-05-21T05:43:57.087Z,5.28
2023-05-21T05:46:42.674Z,4.35
2023-05-21T05:49:27.851Z,3.83
2023-05-21T05:52:12.926Z,4.50
2023-05-21T05:54:58.288Z,4.60
2023-05-21T05:57:44.947Z,4.78
2023-05-21T06:00:30.679Z,4.72
2023-05-21T06:03:16.094Z,3.65
2023-05-21T06:06:01.425Z,3.70
2023-05-21T06:08:46.885Z,3.35
2023-05-21T06:11:31.758Z,3.75
2023-05-21T06:14:17.047Z,3.92
2023-05-21T06:17:02.019Z,4.22
2023-05-21T06:19:47.461Z,3.70
2023-05-21T06:22:32.409Z,3.40
2023-05-21T06:25:18.284Z,3.45
2023-05-21T06:28:03.557Z,3.40
2023-05-21T06:30:48.635Z,3.80
2023-05-21T06:33:33.723Z,3.45
2023-05-21T06:36:19.096Z,3.53
2023-05-21T06:39:03.991Z,3.60
2023-05-21T06:41:48.987Z,3.17
2023-05-21T06:44:34.143Z,3.38
2023-05-21T06:47:19.154Z,3.13
2023-05-21T06:50:04.490Z,3.33
2023-05-21T06:52:49.524Z,2.92
2023-05-21T06:55:34.606Z,2.85
2023-05-21T06:58:19.979Z,3.38
2023-05-21T07:01:05.952Z,3.25
2023-05-21T07:03:51.216Z,3.30
2023-05-21T07:06:37.871Z,3.45
2023-05-21T07:09:23.052Z,2.72
2023-05-21T07:12:08.389Z,1.67
2023-05-21T07:14:53.316Z,2.75
2023-05-21T07:17:38.334Z,2.60
2023-05-21T07:20:23.903Z,3.13
2023-05-21T07:23:08.735Z,2.88
2023-05-21T07:25:54.420Z,3.05
2023-05-21T07:28:39.618Z,3.22
2023-05-21T07:31:25.386Z,2.75
2023-05-21T07:34:10.491Z,2.63
2023-05-21T07:36:55.713Z,2.80
2023-05-21T07:39:40.939Z,2.90
2023-05-21T07:42:26.776Z,2.78
2023-05-21T07:45:11.661Z,2.80
2023-05-21T07:47:56.709Z,2.60
2023-05-21T07:50:42.170Z,2.70
2023-05-21T07:53:27.474Z,3.10
2023-05-21T07:56:12.561Z,2.72
2023-05-21T07:58:57.648Z,2.55
2023-05-21T08:01:43.437Z,2.15
2023-05-21T08:04:28.658Z,2.30
2023-05-21T08:07:16.925Z,2.42
2023-05-21T08:10:02.929Z,2.05
2023-05-21T08:12:48.008Z,2.60
2023-05-21T08:15:32.902Z,2.60
2023-05-21T08:18:18.523Z,2.53
2023-05-21T08:21:04.495Z,2.38
2023-05-21T08:23:52.052Z,2.40
2023-05-21T08:26:37.159Z,2.20
2023-05-21T08:29:22.742Z,2.17
2023-05-21T08:32:09.708Z,1.90
2023-05-21T08:34:54.866Z,2.33
2023-05-21T08:37:39.950Z,1.90
2023-05-21T08:40:25.005Z,1.80
2023-05-21T08:43:14.544Z,2.20
2023-05-21T08:46:01.672Z,1.90
2023-05-21T08:48:47.080Z,2.13
2023-05-21T08:51:32.283Z,1.55
2023-05-21T08:54:17.491Z,2.17
2023-05-21T08:57:04.000Z,2.22
2023-05-21T08:59:49.961Z,1.88
2023-05-21T09:02:40.438Z,1.90
2023-05-21T09:05:26.969Z,2.03
2023-05-21T09:08:18.161Z,1.52
2023-05-21T09:11:03.710Z,1.73
2023-05-21T09:13:50.099Z,1.73
2023-05-21T09:16:35.323Z,1.52
2023-05-21T09:19:22.323Z,1.60
2023-05-21T09:22:07.476Z,1.52
2023-05-21T09:24:52.775Z,1.45
2023-05-21T09:27:38.338Z,1.63
2023-05-21T09:30:26.729Z,1.60
2023-05-21T09:33:13.150Z,2.00
2023-05-21T09:35:58.627Z,1.40
2023-05-21T09:38:45.188Z,1.80
2023-05-21T09:41:35.718Z,2.15
2023-05-21T09:44:20.769Z,2.00
2023-05-21T09:47:05.890Z,2.13
2023-05-21T09:49:50.943Z,1.90
2023-05-21T09:52:37.268Z,2.33
2023-05-21T09:55:23.504Z,1.98
2023-05-21T09:58:10.771Z,2.30
2023-05-21T10:00:56.105Z,1.98
2023-05-21T10:03:44.365Z,2.10
2023-05-21T10:06:33.658Z,2.30
2023-05-21T10:09:20.086Z,2.23
2023-05-21T10:12:06.276Z,2.13
2023-05-21T10:14:59.619Z,2.47
2023-05-21T10:17:46.040Z,2.10
2023-05-21T10:20:31.877Z,2.38
2023-05-21T10:23:18.444Z,2.17
2023-05-21T10:26:04.121Z,2.03
2023-05-21T10:28:51.252Z,2.13
2023-05-21T10:31:38.743Z,2.00
2023-05-21T10:34:24.956Z,2.20
2023-05-21T10:37:12.907Z,2.20
2023-05-21T10:39:57.880Z,1.98
2023-05-21T10:43:19.104Z,2.05
2023-05-21T10:46:27.923Z,2.00
2023-05-21T10:49:50.926Z,1.80
2023-05-21T10:52:57.930Z,1.85
2023-05-21T10:55:58.364Z,2.40
2023-05-21T10:59:31.221Z,2.30
2023-05-21T11:02:19.122Z,2.08
2023-05-21T11:05:04.937Z,2.10
2023-05-21T11:07:53.600Z,2.83
2023-05-21T11:10:40.764Z,2.25
2023-05-21T11:13:27.174Z,2.53
2023-05-21T11:16:16.486Z,3.72
2023-05-21T11:19:02.364Z,6.63
2023-05-21T11:21:51.334Z,14.23
2023-05-21T11:24:41.321Z,4.40
2023-05-21T11:30:27.476Z,4.35
2023-05-21T11:33:13.718Z,8.93
2023-05-21T11:36:03.453Z,2.47
2023-05-21T11:39:09.404Z,1.90
2023-05-21T11:41:59.792Z,2.13
2023-05-21T11:44:48.299Z,1.88
2023-05-21T11:47:33.404Z,2.00
2023-05-21T11:50:19.199Z,2.08
2023-05-21T11:53:04.674Z,2.35
2023-05-21T11:55:50.694Z,2.20
2023-05-21T11:58:35.884Z,2.00
2023-05-21T12:01:24.875Z,2.10
2023-05-21T12:04:13.498Z,2.35
2023-05-21T12:06:58.955Z,3.77
2023-05-21T12:09:49.724Z,1.92
2023-05-21T12:12:49.945Z,2.13
2023-05-21T12:15:39.585Z,2.00
2023-05-21T12:18:25.356Z,1.95
2023-05-21T12:21:12.386Z,1.95
2023-05-21T12:23:58.020Z,1.80
2023-05-21T12:26:44.523Z,1.80
2023-05-21T12:29:35.904Z,2.03
2023-05-21T12:32:21.552Z,2.00
2023-05-21T12:35:06.974Z,1.90
2023-05-21T12:37:52.776Z,2.25
2023-05-21T12:40:38.674Z,2.55
2023-05-21T12:43:24.772Z,2.60
2023-05-21T12:46:17.383Z,2.60
2023-05-21T12:49:02.522Z,3.17
2023-05-21T12:51:48.039Z,2.38
2023-05-21T12:54:35.344Z,2.67
2023-05-21T12:57:25.828Z,2.30
2023-05-21T13:00:11.993Z,2.10
2023-05-21T13:02:59.704Z,2.20
2023-05-21T13:05:44.796Z,2.80
2023-05-21T13:08:30.080Z,2.60
2023-05-21T13:11:15.369Z,2.30
2023-05-21T13:14:00.751Z,2.40
2023-05-21T13:16:47.439Z,2.33
2023-05-21T13:19:32.616Z,2.00
2023-05-21T13:22:17.751Z,2.53
2023-05-21T13:25:03.141Z,2.60
2023-05-21T13:27:50.057Z,2.50
2023-05-21T13:30:35.852Z,2.67
2023-05-21T13:33:21.533Z,2.33
2023-05-21T13:36:06.960Z,2.72
2023-05-21T13:38:51.804Z,2.30
2023-05-21T13:41:36.872Z,2.38
2023-05-21T13:44:22.153Z,3.10
2023-05-21T13:47:10.179Z,2.58
2023-05-21T13:49:55.506Z,2.08
2023-05-21T13:52:40.957Z,2.22
2023-05-21T13:55:26.087Z,2.10
2023-05-21T13:58:11.088Z,1.95
2023-05-21T14:00:56.378Z,2.22
2023-05-21T14:03:41.647Z,2.05
2023-05-21T14:06:26.636Z,2.50
2023-05-21T14:09:12.085Z,2.33
2023-05-21T14:11:58.701Z,2.30
2023-05-21T14:14:44.050Z,2.30
2023-05-21T14:17:29.186Z,2.50
2023-05-21T14:20:14.306Z,2.45
2023-05-21T14:22:59.689Z,1.95
2023-05-21T14:25:44.955Z,2.05
2023-05-21T14:28:30.350Z,1.98
2023-05-21T14:31:15.412Z,1.80
2023-05-21T14:34:02.739Z,2.22
2023-05-21T14:36:47.806Z,2.55
2023-05-21T14:39:32.703Z,2.40
2023-05-21T14:42:17.736Z,2.40
2023-05-21T14:45:17.692Z,2.55
2023-05-21T14:48:08.470Z,2.20
2023-05-21T14:50:53.934Z,2.40
2023-05-21T14:53:39.198Z,2.20
2023-05-21T14:56:27.206Z,2.17
2023-05-21T14:59:12.781Z,2.08
2023-05-21T15:01:57.999Z,2.40
2023-05-21T15:04:43.026Z,2.47
2023-05-21T15:07:28.055Z,2.08
2023-05-21T15:10:13.017Z,2.00
2023-05-21T15:12:59.548Z,2.03
2023-05-21T15:15:44.703Z,2.00
2023-05-21T15:18:29.827Z,2.00
2023-05-21T15:21:14.871Z,2.38
2023-05-21T15:23:59.835Z,2.35
2023-05-21T15:26:44.762Z,2.30
2023-05-21T15:29:29.769Z,2.67
2023-05-21T15:32:14.747Z,2.30
2023-05-21T15:34:59.787Z,2.38
2023-05-21T15:37:46.148Z,2.78
2023-05-21T15:40:32.398Z,2.38
2023-05-21T15:43:17.464Z,2.53
2023-05-21T15:46:02.468Z,2.78
2023-05-21T15:48:47.460Z,2.20
2023-05-21T15:51:32.617Z,2.40
2023-05-21T15:54:17.970Z,2.13
2023-05-21T15:57:03.471Z,2.47
2023-05-21T15:59:50.316Z,2.97
2023-05-21T16:02:35.941Z,2.45
2023-05-21T16:05:21.251Z,2.50
2023-05-21T16:08:06.412Z,2.72
2023-05-21T16:10:51.601Z,2.63
2023-05-21T16:13:36.494Z,2.97
2023-05-21T16:16:24.527Z,3.55
2023-05-21T16:19:10.169Z,2.70
2023-05-21T16:21:55.351Z,2.58
2023-05-21T16:24:40.553Z,2.78
2023-05-21T16:27:25.770Z,2.35
2023-05-21T16:30:12.040Z,2.38
2023-05-21T16:32:57.434Z,2.50
2023-05-21T16:35:42.698Z,2.40
2023-05-21T16:38:27.695Z,2.42
2023-05-21T16:41:12.553Z,1.98
2023-05-21T16:43:57.804Z,3.35
2023-05-21T16:46:42.751Z,2.50
2023-05-21T16:49:27.906Z,2.42
2023-05-21T16:52:13.194Z,2.53
2023-05-21T16:54:58.066Z,2.63
2023-05-21T16:57:43.169Z,2.60
2023-05-21T17:00:28.109Z,2.50
2023-05-21T17:03:13.509Z,2.90
2023-05-21T17:05:58.751Z,2.35
2023-05-21T17:08:43.918Z,2.95
2023-05-21T17:11:29.230Z,2.90
2023-05-21T17:14:23.317Z,2.83
2023-05-21T17:17:18.308Z,2.53
2023-05-21T17:20:04.264Z,2.60
2023-05-21T17:22:49.338Z,2.47
2023-05-21T17:25:35.010Z,2.28
2023-05-21T17:28:20.181Z,2.17
2023-05-21T17:31:08.168Z,2.10
2023-05-21T17:33:56.172Z,2.53
2023-05-21T17:36:40.996Z,2.35
2023-05-21T17:39:26.102Z,2.47
2023-05-21T17:42:11.287Z,2.25
2023-05-21T17:44:56.291Z,2.83
2023-05-21T17:47:41.409Z,2.70
2023-05-21T17:50:26.639Z,2.45
2023-05-21T17:53:12.926Z,2.15
2023-05-21T17:55:58.284Z,2.60
2023-05-21T17:58:43.529Z,2.70
2023-05-21T18:01:28.539Z,2.40
2023-05-21T18:04:13.946Z,2.50
2023-05-21T18:06:59.069Z,2.60
2023-05-21T18:09:43.980Z,2.58
2023-05-21T18:12:28.999Z,3.20
2023-05-21T18:15:14.839Z,2.42
2023-05-21T18:18:00.069Z,2.40
2023-05-21T18:20:45.210Z,2.60
2023-05-21T18:23:31.224Z,2.35
2023-05-21T18:26:16.444Z,2.30
2023-05-21T18:29:01.297Z,2.38
2023-05-21T18:31:46.338Z,2.25
2023-05-21T18:34:31.595Z,2.28
2023-05-21T18:37:16.958Z,2.50
2023-05-21T18:40:01.929Z,2.40
2023-05-21T18:42:46.920Z,2.30
2023-05-21T18:45:32.898Z,2.63
2023-05-21T18:48:17.773Z,2.55
2023-05-21T18:51:02.864Z,3.30
2023-05-21T18:53:48.073Z,2.40
2023-05-21T18:56:33.023Z,2.80
2023-05-21T18:59:18.450Z,2.45
2023-05-21T19:02:04.820Z,2.67
2023-05-21T19:04:50.172Z,2.47
2023-05-21T19:07:36.345Z,2.63
2023-05-21T19:10:21.302Z,2.40
2023-05-21T19:13:06.619Z,2.38
2023-05-21T19:15:51.896Z,2.60
2023-05-21T19:18:37.184Z,2.83
2023-05-21T19:21:23.291Z,2.42
2023-05-21T19:24:08.296Z,2.55
2023-05-21T19:26:53.620Z,2.80
2023-05-21T19:29:38.800Z,2.50
2023-05-21T19:32:23.976Z,2.80
2023-05-21T19:35:09.252Z,2.80
2023-05-21T19:37:58.809Z,3.30
2023-05-21T19:40:44.389Z,3.20
2023-05-21T19:43:29.585Z,3.10
2023-05-21T19:46:17.365Z,3.42
2023-05-21T19:49:05.801Z,3.50
2023-05-21T19:51:54.497Z,3.65
2023-05-21T19:54:39.378Z,3.63
2023-05-21T19:57:24.387Z,3.20
2023-05-21T20:00:10.318Z,2.92
2023-05-21T20:02:56.151Z,3.35
2023-05-21T20:05:41.370Z,3.25
2023-05-21T20:08:26.599Z,3.25
2023-05-21T20:11:12.404Z,3.33
2023-05-21T20:13:57.309Z,3.15
2023-05-21T20:16:42.489Z,3.40
2023-05-21T20:19:30.001Z,3.30
2023-05-21T20:22:15.961Z,3.00
2023-05-21T20:25:02.738Z,3.50
2023-05-21T20:27:47.589Z,3.28
2023-05-21T20:30:34.377Z,3.65
2023-05-21T20:33:20.328Z,3.67
2023-05-21T20:36:05.454Z,3.40
2023-05-21T20:38:50.742Z,3.47
2023-05-21T20:41:37.716Z,4.03
2023-05-21T20:44:22.798Z,3.67
2023-05-21T20:47:08.080Z,3.70
2023-05-21T20:49:53.667Z,3.70
2023-05-21T20:52:38.964Z,4.15
2023-05-21T20:55:24.103Z,3.58
2023-05-21T20:58:09.039Z,3.70
2023-05-21T21:00:55.146Z,3.75
2023-05-21T21:03:41.427Z,4.27
2023-05-21T21:06:30.059Z,4.45
2023-05-21T21:09:14.965Z,3.55
2023-05-21T21:12:06.252Z,4.13
2023-05-21T21:14:57.021Z,3.88
2023-05-21T21:17:42.006Z,4.72
2023-05-21T21:20:26.938Z,4.00
2023-05-21T21:23:11.937Z,3.75
2023-05-21T21:25:56.886Z,3.50
2023-05-21T21:28:42.031Z,4.00
2023-05-21T21:31:27.056Z,3.97
2023-05-21T21:34:12.360Z,3.17
2023-05-21T21:36:57.847Z,4.20
2023-05-21T21:39:42.862Z,3.30
2023-05-21T21:42:27.735Z,3.75
2023-05-21T21:45:13.206Z,3.85
2023-05-21T21:47:58.220Z,3.70
2023-05-21T21:50:43.372Z,3.35
2023-05-21T21:53:28.278Z,3.38
2023-05-21T21:56:13.102Z,3.38
2023-05-21T21:58:58.089Z,2.72
2023-05-21T22:01:43.282Z,2.83
2023-05-21T22:04:28.462Z,2.83
2023-05-21T22:07:17.685Z,2.95
2023-05-21T22:10:02.666Z,2.87
2023-05-21T22:12:47.871Z,2.78
2023-05-21T22:15:33.291Z,2.22
2023-05-21T22:18:25.342Z,2.42
2023-05-21T22:21:21.576Z,2.55
2023-05-21T22:24:09.554Z,2.40
2023-05-21T22:27:00.461Z,2.47
2023-05-21T22:29:45.918Z,2.58
2023-05-21T22:32:31.074Z,2.20
2023-05-21T22:35:16.633Z,2.47
2023-05-21T22:38:02.336Z,2.42
2023-05-21T22:40:47.252Z,2.50
2023-05-21T22:43:34.728Z,1.95
2023-05-21T22:46:20.512Z,2.20
2023-05-21T22:49:06.236Z,2.05
2023-05-21T22:51:52.568Z,1.88
2023-05-21T22:54:37.473Z,1.90
2023-05-21T22:57:22.763Z,1.95
2023-05-21T23:00:09.661Z,2.28
2023-05-21T23:02:55.013Z,1.73
2023-05-21T23:05:40.888Z,2.15
2023-05-21T23:08:26.751Z,2.17
2023-05-21T23:11:11.638Z,2.13
2023-05-21T23:13:56.518Z,2.95
2023-05-21T23:16:44.362Z,2.40
2023-05-21T23:19:29.769Z,2.60
2023-05-21T23:22:15.075Z,2.83
2023-05-21T23:25:00.438Z,2.20
2023-05-21T23:27:45.889Z,2.20
2023-05-21T23:30:31.038Z,2.17
2023-05-21T23:33:16.019Z,2.40
2023-05-21T23:36:01.318Z,2.15
2023-05-21T23:38:46.341Z,2.45
2023-05-21T23:41:31.614Z,2.85
2023-05-21T23:44:16.840Z,2.25
2023-05-21T23:47:02.070Z,2.35
2023-05-21T23:49:46.834Z,1.95
2023-05-21T23:52:31.770Z,2.33
2023-05-21T23:55:16.923Z,2.22
2023-05-21T23:58:03.808Z,2.53
